ENRY

Moss , Rygge Airport

Rygge, Norway
METAR ENRY 211950Z AUTO 14004KT 9999NDV OVC026/// M02/M03 Q1015
Observed Flight Rules
Jan-21 @ 19:50 UTC (27 minutes ago)
Wind Clouds
140° at 4 knots
  • Overcast at 2,600' AGL
Temperatures Readings
Current -2°C / 28°F
Dewpoint -3°C / 27°F
Humidity 93%
Altimeter 29.97" Hg
Pressure 1015 hPa
Elevation 53
METAR ENRY 211950Z AUTO 14004KT 9999NDV OVC026/// M02/M03 Q1015
Observed Flight Rules
Jan-21 @ 19:50 UTC
(27 minutes ago)
Wind
140° at 4 knots
Clouds
  • Overcast at 2,600' AGL
Temperature Dewpoint
-2°C / 28°F -3°C / 27°F
Humidity Altimeter Pressure
93% 29.97" Hg 1015 hPa